Time;durP1;ratioP1;P1;durP2;ratioP2;P2;SDS_P1;SDS_P2;PMS_P1;PMS_P2;Temp;Humidity;BMP_temperature;BMP_pressure;BME280_temperature;BME280_humidity;BME280_pressure;Samples;Min_cycle;Max_cycle;Signal;HPM_P1;HPM_P2
2022/11/14 00:01:35;;;;;;;11.30;10.50;;;6.60;54.10;;;;;;20538;6739;308285;-86
2022/11/14 00:04:10;;;;;;;12.37;11.47;;;6.90;54.10;;;;;;20683;6736;310263;-86
2022/11/14 00:06:46;;;;;;;11.70;10.70;;;7.20;53.70;;;;;;20918;6732;117215;-84
2022/11/14 00:09:25;;;;;;;10.53;9.63;;;7.00;53.90;;;;;;20967;6715;117606;-87
2022/11/14 00:12:00;;;;;;;10.20;9.30;;;6.70;54.50;;;;;;20698;6803;117700;-84
2022/11/14 00:14:36;;;;;;;12.27;11.35;;;6.40;55.10;;;;;;20688;6747;311152;-84
2022/11/14 00:17:11;;;;;;;13.47;11.63;;;6.50;55.20;;;;;;20939;6724;116163;-87
2022/11/14 00:19:47;;;;;;;12.17;10.97;;;6.50;55.00;;;;;;20873;6741;118260;-84
2022/11/14 00:22:22;;;;;;;12.53;11.43;;;6.30;55.30;;;;;;20917;6727;117111;-84
2022/11/14 00:25:04;;;;;;;13.10;11.80;;;6.00;55.60;;;;;;20906;6731;123287;-85
2022/11/14 00:27:33;;;;;;;13.50;12.20;;;5.90;55.90;;;;;;20942;6730;117330;-84
2022/11/14 00:30:09;;;;;;;16.27;14.77;;;5.70;56.20;;;;;;20666;6728;280606;-85
2022/11/14 00:32:45;;;;;;;17.30;15.73;;;5.90;55.70;;;;;;20731;6722;276277;-86
2022/11/14 00:35:20;;;;;;;14.23;12.93;;;6.30;54.60;;;;;;21009;6706;121273;-84
2022/11/14 00:37:56;;;;;;;15.27;13.97;;;6.30;54.40;;;;;;20776;6706;304160;-84
2022/11/14 00:40:31;;;;;;;14.13;12.80;;;6.30;54.50;;;;;;20937;6706;118635;-87
2022/11/14 00:43:07;;;;;;;12.37;11.27;;;6.30;54.70;;;;;;20998;6705;121706;-84
2022/11/14 00:45:43;;;;;;;10.30;9.43;;;6.00;55.10;;;;;;20965;6718;119898;-88
2022/11/14 00:48:19;;;;;;;13.67;12.57;;;5.80;55.60;;;;;;20771;6721;276625;-87
2022/11/14 00:50:54;;;;;;;13.90;12.80;;;6.00;55.10;;;;;;20643;6721;336598;-84
2022/11/14 00:53:32;;;;;;;13.40;12.40;;;6.30;54.30;;;;;;20799;6708;275671;-84
2022/11/14 00:56:08;;;;;;;11.33;10.43;;;6.60;53.10;;;;;;20955;6721;120876;-84
2022/11/14 00:58:43;;;;;;;10.57;9.67;;;6.40;53.20;;;;;;20916;6738;117080;-88
2022/11/14 01:01:19;;;;;;;9.93;9.13;;;6.10;54.10;;;;;;20881;6712;119019;-83
2022/11/14 01:03:54;;;;;;;9.47;8.70;;;5.80;54.70;;;;;;21011;6708;117209;-84
2022/11/14 01:06:30;;;;;;;11.83;10.93;;;5.60;55.50;;;;;;20798;6706;305306;-87
2022/11/14 01:09:05;;;;;;;10.03;9.27;;;5.80;55.80;;;;;;20950;6721;118134;-88
2022/11/14 01:11:41;;;;;;;11.82;10.93;;;5.80;55.60;;;;;;20630;6720;340081;-84
2022/11/14 01:14:18;;;;;;;11.12;10.32;;;6.00;56.10;;;;;;20794;6705;334212;-86
2022/11/14 01:16:54;;;;;;;12.17;11.27;;;6.40;55.80;;;;;;20788;6705;306564;-84
2022/11/14 01:19:30;;;;;;;10.33;9.47;;;6.70;55.10;;;;;;20972;6720;119670;-86
2022/11/14 01:22:06;;;;;;;11.77;10.80;;;6.60;55.10;;;;;;20738;6720;275339;-88
2022/11/14 01:24:42;;;;;;;9.60;8.80;;;6.70;55.10;;;;;;20966;6730;117181;-89
2022/11/14 01:27:18;;;;;;;11.05;10.25;;;6.60;55.30;;;;;;20724;6740;319384;-89
2022/11/14 01:29:54;;;;;;;10.77;10.03;;;6.60;55.20;;;;;;20744;6735;305853;-89
2022/11/14 01:32:30;;;;;;;10.70;10.00;;;6.90;54.10;;;;;;20767;6740;305261;-83
2022/11/14 01:35:05;;;;;;;9.27;8.57;;;7.20;53.40;;;;;;20928;6726;120846;-84
2022/11/14 01:37:44;;;;;;;8.67;7.97;;;6.90;53.60;;;;;;20984;6726;116648;-85
2022/11/14 01:40:20;;;;;;;10.47;9.77;;;6.60;54.30;;;;;;20706;6726;309167;-85
2022/11/14 01:43:15;;;;;;;9.00;8.30;;;6.60;54.30;;;;;;21004;6706;117329;-84
2022/11/14 01:46:01;;;;;;;11.15;10.30;;;6.50;54.30;;;;;;20764;6722;339232;-84
2022/11/14 01:48:37;;;;;;;9.87;9.23;;;6.60;53.70;;;;;;20702;6740;308246;-83
2022/11/14 01:51:22;;;;;;;9.97;9.27;;;6.90;52.90;;;;;;20565;6738;295550;-87
2022/11/14 01:53:59;;;;;;;9.17;8.47;;;7.10;52.80;;;;;;20967;6722;117091;-88
2022/11/14 01:56:34;;;;;;;17.07;8.40;;;6.80;53.00;;;;;;20958;6721;117181;-85
2022/11/14 01:59:12;;;;;;;87.37;11.60;;;6.40;53.50;;;;;;20726;6720;277009;-86
2022/11/14 02:01:47;;;;;;;31.50;9.20;;;6.40;52.20;;;;;;20747;6731;117553;-84
2022/11/14 02:04:24;;;;;;;10.70;10.00;;;6.20;52.10;;;;;;20703;6730;306372;-87
2022/11/14 02:07:01;;;;;;;8.90;8.30;;;6.20;51.40;;;;;;20926;6734;117790;-84
2022/11/14 02:09:36;;;;;;;12.00;7.77;;;6.00;51.90;;;;;;20922;6732;123304;-86
2022/11/14 02:12:12;;;;;;;90.67;9.40;;;5.70;52.60;;;;;;20855;6745;117407;-85
2022/11/14 02:14:48;;;;;;;216.60;12.10;;;5.50;53.50;;;;;;20846;6752;118807;-87
2022/11/14 02:17:23;;;;;;;226.80;15.18;;;5.30;54.00;;;;;;20724;6727;321575;-85
2022/11/14 02:20:02;;;;;;;436.03;21.20;;;5.40;53.40;;;;;;20945;6712;117203;-83
2022/11/14 02:22:38;;;;;;;371.70;18.37;;;5.40;53.50;;;;;;20753;6718;302907;-83
2022/11/14 02:25:13;;;;;;;160.77;12.23;;;5.60;53.30;;;;;;20977;6711;118234;-86
2022/11/14 02:27:49;;;;;;;7.70;7.20;;;5.50;53.30;;;;;;20929;6782;118658;-86
2022/11/14 02:30:24;;;;;;;8.80;8.30;;;5.20;53.80;;;;;;20651;6734;311627;-84
2022/11/14 02:33:00;;;;;;;9.07;8.47;;;5.40;53.90;;;;;;20903;6733;141582;-84
2022/11/14 02:35:35;;;;;;;8.53;7.83;;;5.40;53.80;;;;;;20917;6748;117007;-87
2022/11/14 02:38:12;;;;;;;8.93;8.20;;;5.20;54.20;;;;;;21024;6701;116710;-83
2022/11/14 02:40:47;;;;;;;7.57;6.90;;;5.00;55.00;;;;;;20854;6716;118019;-84
2022/11/14 02:43:22;;;;;;;8.73;8.23;;;4.90;55.60;;;;;;20820;6697;308354;-86
2022/11/14 02:45:58;;;;;;;9.43;8.83;;;5.20;55.70;;;;;;20643;6725;339391;-86
2022/11/14 02:48:35;;;;;;;8.67;8.07;;;5.60;54.30;;;;;;20888;6727;121245;-85
2022/11/14 02:51:12;;;;;;;9.53;8.93;;;5.60;53.90;;;;;;20557;6726;311271;-86
2022/11/14 02:53:48;;;;;;;13.20;7.50;;;5.70;53.80;;;;;;20884;6726;117374;-84
2022/11/14 02:56:24;;;;;;;20.27;7.00;;;5.60;53.70;;;;;;20932;6724;117392;-85
2022/11/14 02:58:59;;;;;;;6.93;6.50;;;5.30;54.10;;;;;;20966;6711;117785;-85
2022/11/14 03:01:35;;;;;;;6.67;6.27;;;5.10;54.70;;;;;;20863;6697;117051;-84
2022/11/14 03:04:11;;;;;;;7.50;7.00;;;4.90;55.10;;;;;;21017;6703;116238;-84
2022/11/14 03:06:46;;;;;;;8.33;7.63;;;4.80;55.40;;;;;;20994;6703;116888;-85
2022/11/14 03:09:29;;;;;;;11.33;10.53;;;4.70;55.70;;;;;;20754;6712;290631;-84
2022/11/14 03:12:04;;;;;;;12.60;11.70;;;4.90;55.80;;;;;;20816;6696;334179;-86
2022/11/14 03:14:39;;;;;;;9.03;8.37;;;5.40;55.90;;;;;;21040;6696;117077;-84
2022/11/14 03:17:15;;;;;;;7.40;6.90;;;5.40;55.60;;;;;;20965;6714;117790;-85
2022/11/14 03:19:51;;;;;;;8.70;8.10;;;5.20;55.80;;;;;;20726;6717;312816;-84
2022/11/14 03:22:26;;;;;;;9.07;8.57;;;5.40;55.20;;;;;;20724;6711;306681;-84
2022/11/14 03:25:03;;;;;;;9.68;9.07;;;5.70;54.40;;;;;;20677;6737;339481;-86
2022/11/14 03:27:41;;;;;;;9.67;9.07;;;6.00;54.00;;;;;;20706;6733;307055;-84
2022/11/14 03:30:17;;;;;;;8.43;7.83;;;6.30;54.00;;;;;;20902;6714;117401;-84
2022/11/14 03:32:52;;;;;;;9.00;8.20;;;6.20;54.10;;;;;;20925;6736;118879;-86
2022/11/14 03:35:28;;;;;;;8.13;7.43;;;5.90;54.80;;;;;;20967;6717;116870;-84
2022/11/14 03:38:03;;;;;;;7.93;7.40;;;5.60;55.40;;;;;;20919;6730;117337;-84
2022/11/14 03:40:39;;;;;;;9.33;8.73;;;5.40;56.00;;;;;;20593;6734;309063;-86
2022/11/14 03:43:14;;;;;;;9.50;8.90;;;5.60;55.90;;;;;;20700;6735;310649;-84
2022/11/14 03:45:50;;;;;;;9.38;8.68;;;6.00;55.40;;;;;;20647;6753;336205;-84
2022/11/14 03:48:26;;;;;;;8.70;8.20;;;6.40;54.60;;;;;;20697;6736;306172;-86
2022/11/14 03:51:03;;;;;;;8.30;7.70;;;6.60;53.60;;;;;;20615;6722;307093;-85
2022/11/14 03:53:38;;;;;;;7.20;6.70;;;6.80;52.70;;;;;;20971;6728;117866;-87
2022/11/14 03:56:15;;;;;;;6.60;6.20;;;6.50;52.60;;;;;;20956;6776;117014;-84
2022/11/14 03:58:50;;;;;;;8.03;7.53;;;6.10;53.30;;;;;;20742;6719;303627;-85
2022/11/14 04:01:27;;;;;;;9.40;8.80;;;6.10;53.50;;;;;;20564;6734;308216;-84
2022/11/14 04:04:03;;;;;;;8.50;7.90;;;6.40;53.00;;;;;;20924;6790;117384;-85
2022/11/14 04:06:40;;;;;;;8.80;8.00;;;6.30;53.10;;;;;;20994;6718;117227;-84
2022/11/14 04:09:15;;;;;;;9.80;9.20;;;5.90;53.50;;;;;;20755;6722;307141;-84
2022/11/14 04:11:51;;;;;;;8.30;7.80;;;6.00;53.80;;;;;;20832;6719;117127;-84
2022/11/14 04:14:29;;;;;;;10.03;9.33;;;5.90;53.90;;;;;;20716;6735;306156;-85
2022/11/14 04:17:05;;;;;;;9.00;8.50;;;6.00;54.30;;;;;;20747;6717;309945;-85
2022/11/14 04:19:40;;;;;;;8.13;7.33;;;6.40;54.60;;;;;;20931;6741;116231;-86
2022/11/14 04:22:16;;;;;;;7.90;7.30;;;6.30;54.70;;;;;;20972;6736;117684;-84
2022/11/14 04:24:51;;;;;;;7.47;6.90;;;6.10;55.40;;;;;;20956;6718;141720;-82
2022/11/14 04:27:28;;;;;;;7.60;7.00;;;5.90;56.10;;;;;;20952;6725;122177;-84
2022/11/14 04:30:04;;;;;;;6.90;6.40;;;5.80;56.60;;;;;;20934;6735;117142;-84
2022/11/14 04:32:39;;;;;;;6.97;6.50;;;5.70;56.90;;;;;;20999;6717;115777;-84
2022/11/14 04:35:45;;;;;;;8.93;8.32;;;5.70;57.20;;;;;;20765;6711;279723;-95
2022/11/14 04:38:15;;;;;;;14.60;13.40;;;5.90;56.50;;;;;;20850;6711;275614;-86
2022/11/14 04:40:52;;;;;;;12.27;11.37;;;6.40;55.60;;;;;;20579;6746;308740;-85
2022/11/14 04:43:28;;;;;;;7.73;7.13;;;6.80;55.20;;;;;;20885;6749;118046;-85
2022/11/14 04:46:04;;;;;;;7.73;7.23;;;6.70;55.00;;;;;;20847;6759;117637;-85
2022/11/14 04:48:42;;;;;;;7.80;7.20;;;6.40;55.50;;;;;;20931;6740;117416;-83
2022/11/14 04:51:18;;;;;;;8.03;7.43;;;6.10;56.00;;;;;;20879;6731;116602;-84
2022/11/14 04:53:56;;;;;;;9.80;9.20;;;5.90;56.50;;;;;;20720;6733;327395;-85
2022/11/14 04:56:29;;;;;;;8.93;8.30;;;6.10;56.90;;;;;;20985;6714;123826;-83
2022/11/14 04:59:14;;;;;;;10.73;10.03;;;6.20;56.70;;;;;;20642;6712;305842;-85
2022/11/14 05:01:40;;;;;;;58.57;47.57;;;6.40;56.60;;;;;;20599;6706;307617;-86
2022/11/14 05:04:16;;;;;;;18.60;15.70;;;6.80;55.70;;;;;;20949;6726;118434;-86
2022/11/14 05:06:52;;;;;;;9.20;8.50;;;6.70;55.40;;;;;;20875;6733;118310;-85
2022/11/14 05:09:27;;;;;;;8.67;8.03;;;6.40;56.00;;;;;;20910;6738;117760;-85
2022/11/14 05:12:03;;;;;;;8.10;7.50;;;6.20;56.60;;;;;;20912;6738;116748;-86
2022/11/14 05:14:38;;;;;;;10.23;9.53;;;6.00;57.00;;;;;;20693;6738;307757;-85
2022/11/14 05:17:14;;;;;;;10.83;10.03;;;6.20;56.10;;;;;;20670;6741;276808;-84
2022/11/14 05:19:50;;;;;;;17.53;8.73;;;6.50;54.10;;;;;;20898;6740;117431;-86
2022/11/14 05:22:25;;;;;;;28.15;10.32;;;6.40;53.90;;;;;;20726;6726;338470;-84
2022/11/14 05:25:01;;;;;;;8.77;8.17;;;6.40;53.50;;;;;;20939;6726;126969;-84
2022/11/14 05:27:39;;;;;;;8.03;7.43;;;6.20;53.60;;;;;;20954;6726;117619;-83
2022/11/14 05:30:12;;;;;;;10.30;9.60;;;5.90;54.30;;;;;;20663;6728;332679;-84
2022/11/14 05:32:52;;;;;;;8.40;7.80;;;6.00;56.00;;;;;;20934;6717;117307;-84
2022/11/14 05:35:28;;;;;;;7.73;7.23;;;6.00;56.20;;;;;;20986;6714;117579;-85
2022/11/14 05:38:03;;;;;;;8.37;7.70;;;5.90;56.80;;;;;;20983;6727;119758;-84
2022/11/14 05:40:39;;;;;;;8.23;7.63;;;5.80;57.40;;;;;;20900;6704;116778;-86
2022/11/14 05:43:14;;;;;;;9.63;9.03;;;5.80;57.90;;;;;;20691;6730;277848;-86
2022/11/14 05:45:50;;;;;;;9.50;8.82;;;6.10;58.70;;;;;;20753;6713;340016;-87
2022/11/14 05:48:26;;;;;;;7.70;7.03;;;6.60;58.10;;;;;;20982;6716;117008;-86
2022/11/14 05:51:01;;;;;;;17.83;16.13;;;6.70;57.50;;;;;;20771;6730;117218;-87
2022/11/14 05:53:37;;;;;;;9.05;8.45;;;6.60;57.60;;;;;;20693;6732;307574;-89
2022/11/14 05:56:12;;;;;;;8.52;8.02;;;6.80;57.10;;;;;;20617;6755;311698;-86
2022/11/14 05:58:49;;;;;;;8.70;8.00;;;7.10;55.50;;;;;;20960;6730;131598;-87
2022/11/14 06:01:26;;;;;;;10.17;9.50;;;7.00;55.30;;;;;;20577;6732;300502;-86
2022/11/14 06:04:01;;;;;;;10.20;9.23;;;7.10;53.20;;;;;;20667;6745;306390;-87
2022/11/14 06:06:36;;;;;;;8.80;8.20;;;7.30;52.10;;;;;;20897;6744;121800;-89
2022/11/14 06:09:12;;;;;;;7.20;6.70;;;7.00;52.00;;;;;;20992;6708;121820;-90
2022/11/14 06:11:49;;;;;;;9.50;8.90;;;6.60;53.10;;;;;;20543;6734;312617;-85
2022/11/14 06:14:28;;;;;;;7.50;7.00;;;6.70;55.00;;;;;;20932;6729;117764;-86
2022/11/14 06:17:00;;;;;;;21.63;19.47;;;6.60;54.90;;;;;;20917;6730;117036;-87
2022/11/14 06:19:35;;;;;;;25.13;22.40;;;6.40;55.50;;;;;;20926;6731;117581;-87
2022/11/14 06:22:11;;;;;;;8.48;7.87;;;6.30;56.10;;;;;;20711;6733;310392;-84
2022/11/14 06:24:47;;;;;;;8.18;7.68;;;6.50;56.80;;;;;;20710;6715;323370;-90
2022/11/14 06:27:22;;;;;;;8.38;7.80;;;7.00;57.50;;;;;;20763;6715;276120;-89
2022/11/14 06:29:58;;;;;;;7.40;6.90;;;7.40;56.40;;;;;;20960;6715;117117;-87
2022/11/14 06:32:33;;;;;;;9.40;8.80;;;7.40;56.10;;;;;;20759;6731;305899;-85
2022/11/14 06:35:09;;;;;;;10.50;9.80;;;7.50;56.10;;;;;;20700;6733;335771;-91
2022/11/14 06:37:54;;;;;;;9.40;8.73;;;7.80;55.50;;;;;;20756;6720;305266;-91
2022/11/14 06:40:22;;;;;;;7.23;6.77;;;8.00;54.80;;;;;;20914;6723;117062;-87
2022/11/14 06:42:57;;;;;;;7.07;6.57;;;7.80;54.90;;;;;;20964;6709;117298;-89
2022/11/14 06:45:33;;;;;;;8.30;7.80;;;7.60;55.60;;;;;;20750;6716;279307;-87
2022/11/14 06:48:10;;;;;;;8.70;8.10;;;7.70;56.00;;;;;;20950;6741;116946;-87
2022/11/14 06:50:56;;;;;;;10.40;9.60;;;7.60;55.70;;;;;;20627;6716;307680;-87
2022/11/14 06:53:32;;;;;;;10.30;9.60;;;7.60;53.70;;;;;;20770;6707;334941;-86
2022/11/14 06:56:07;;;;;;;9.03;8.33;;;7.80;52.00;;;;;;20890;6729;117130;-85
2022/11/14 06:58:43;;;;;;;9.13;8.30;;;7.60;52.40;;;;;;20952;6736;117271;-85
2022/11/14 07:01:21;;;;;;;11.95;9.98;;;7.30;53.30;;;;;;20653;6709;335680;-86
2022/11/14 07:03:57;;;;;;;11.50;10.50;;;7.30;52.90;;;;;;20729;6729;277143;-88
2022/11/14 07:06:40;;;;;;;11.20;10.25;;;7.50;52.10;;;;;;20788;6709;334477;-86
2022/11/14 07:09:06;;;;;;;10.88;10.18;;;7.70;51.60;;;;;;20783;6703;305564;-88
2022/11/14 07:11:44;;;;;;;8.30;7.70;;;7.70;51.00;;;;;;20882;6700;117910;-87
2022/11/14 07:14:18;;;;;;;10.43;9.07;;;7.40;51.50;;;;;;21004;6715;118146;-85
2022/11/14 07:16:53;;;;;;;8.70;8.00;;;7.00;52.70;;;;;;20973;6724;125676;-86
2022/11/14 07:19:29;;;;;;;9.13;8.53;;;6.70;53.70;;;;;;20718;6734;334734;-89
2022/11/14 07:22:04;;;;;;;9.60;9.00;;;6.90;54.80;;;;;;20772;6713;279733;-87
2022/11/14 07:24:40;;;;;;;9.02;8.52;;;7.30;54.50;;;;;;20761;6717;290341;-86
2022/11/14 07:27:25;;;;;;;9.57;8.98;;;7.60;53.60;;;;;;20811;6698;304876;-88
2022/11/14 07:29:53;;;;;;;9.45;8.85;;;7.90;53.10;;;;;;20786;6700;282513;-88
2022/11/14 07:32:28;;;;;;;9.60;9.00;;;8.10;52.80;;;;;;20827;6700;323857;-88
2022/11/14 07:35:04;;;;;;;9.23;8.63;;;8.20;52.20;;;;;;20747;6717;275905;-88
2022/11/14 07:37:39;;;;;;;8.40;7.80;;;8.30;51.80;;;;;;21005;6713;117240;-90
2022/11/14 07:40:15;;;;;;;8.00;7.40;;;8.00;52.10;;;;;;21044;6698;116666;-90
2022/11/14 07:42:51;;;;;;;9.48;8.77;;;7.50;52.70;;;;;;20843;6716;304766;-92
2022/11/14 07:45:28;;;;;;;10.00;9.40;;;7.50;52.90;;;;;;20839;6707;324868;-87
2022/11/14 07:48:07;;;;;;;8.23;7.63;;;7.70;52.70;;;;;;20990;6724;117834;-88
2022/11/14 07:50:46;;;;;;;10.03;9.27;;;7.50;52.80;;;;;;20677;6726;307690;-89
2022/11/14 07:53:17;;;;;;;8.10;7.50;;;7.50;53.70;;;;;;21010;6715;121603;-87
2022/11/14 07:55:53;;;;;;;8.53;7.83;;;7.40;53.90;;;;;;20982;6724;117258;-90
2022/11/14 07:58:28;;;;;;;8.50;7.90;;;7.10;54.40;;;;;;20947;6730;116971;-89
2022/11/14 08:01:04;;;;;;;12.33;11.07;;;6.90;54.80;;;;;;20586;6729;281270;-88
2022/11/14 08:03:41;;;;;;;11.38;10.30;;;7.00;55.60;;;;;;20808;6706;276541;-88
2022/11/14 08:06:19;;;;;;;10.53;9.73;;;7.20;54.60;;;;;;20762;6725;306024;-88
2022/11/14 08:08:51;;;;;;;10.53;9.83;;;7.50;54.60;;;;;;20757;6717;276548;-91
2022/11/14 08:11:47;;;;;;;7.90;7.20;;;7.60;55.20;;;;;;20789;6725;117486;-88
2022/11/14 08:14:33;;;;;;;5.43;5.03;;;7.50;55.50;;;;;;20898;6744;116868;-90
2022/11/14 08:16:59;;;;;;;5.53;5.10;;;7.20;56.70;;;;;;20963;6718;117171;-90
2022/11/14 08:19:34;;;;;;;5.60;5.20;;;7.00;57.70;;;;;;20946;6727;116718;-90
2022/11/14 08:22:10;;;;;;;5.20;4.80;;;7.00;58.60;;;;;;20939;6732;122514;-92
2022/11/14 08:24:45;;;;;;;4.43;4.13;;;7.00;59.20;;;;;;20978;6714;147454;-89
2022/11/14 08:27:21;;;;;;;5.13;4.50;;;7.00;59.70;;;;;;20954;6770;116826;-88
2022/11/14 08:29:57;;;;;;;5.40;4.13;;;7.00;60.00;;;;;;20946;6714;116695;-91
2022/11/14 08:32:32;;;;;;;3.77;3.47;;;7.00;60.50;;;;;;20936;6726;116019;-90
2022/11/14 08:35:08;;;;;;;3.60;3.40;;;7.10;61.00;;;;;;20978;6715;120620;-93
2022/11/14 08:37:43;;;;;;;4.50;4.10;;;7.20;61.50;;;;;;20725;6721;291701;-90
2022/11/14 08:40:19;;;;;;;4.00;3.70;;;7.60;64.90;;;;;;20913;6716;116679;-92
2022/11/14 08:42:57;;;;;;;4.30;3.90;;;7.80;64.00;;;;;;20963;6712;117045;-94
2022/11/14 08:45:33;;;;;;;4.00;3.57;;;7.90;64.00;;;;;;21040;6701;117774;-90
2022/11/14 08:48:18;;;;;;;;;;;;;;;;;;;;;
2022/11/14 08:50:44;;;;;;;5.57;5.13;;;8.20;66.00;;;;;;20408;6700;281114;-90
2022/11/14 08:53:30;;;;;;;4.70;4.40;;;8.60;65.60;;;;;;20685;6698;117458;-89
2022/11/14 08:56:05;;;;;;;3.10;2.90;;;8.70;64.60;;;;;;21016;6698;117755;-89
2022/11/14 08:58:31;;;;;;;8.48;3.90;;;8.60;64.80;;;;;;20814;6698;333262;-89
2022/11/14 09:01:07;;;;;;;4.20;3.80;;;8.80;66.40;;;;;;20945;6698;117214;-90
2022/11/14 09:20:08;;;;;;;5.77;2.90;;;8.30;68.00;;;;;;21205;6571;90245;-86
2022/11/14 09:22:33;;;;;;;4.23;3.23;;;8.30;68.90;;;;;;20783;6826;117122;-87
2022/11/14 09:25:00;;;;;;;2.77;2.57;;;8.30;68.40;;;;;;20766;6826;117007;-89
2022/11/14 09:27:27;;;;;;;3.95;3.65;;;8.40;68.40;;;;;;20578;6826;307418;-85
2022/11/14 09:29:53;;;;;;;2.70;2.50;;;8.70;69.70;;;;;;20770;6826;116760;-84
2022/11/14 09:32:20;;;;;;;2.97;2.80;;;8.90;68.40;;;;;;20786;6826;116255;-85
2022/11/14 09:34:46;;;;;;;2.92;2.80;;;8.90;68.40;;;;;;20549;6826;311183;-84
2022/11/14 09:37:11;;;;;;;3.27;3.07;;;9.20;69.40;;;;;;20344;6909;344827;-89
2022/11/14 09:39:39;;;;;;;3.03;2.83;;;9.60;68.60;;;;;;20354;6847;337551;-86
2022/11/14 09:42:06;;;;;;;3.00;2.80;;;10.00;66.60;;;;;;20516;6832;305886;-87
2022/11/14 09:44:49;;;;;;;3.00;2.87;;;10.30;65.60;;;;;;20723;6845;117227;-86
2022/11/14 09:47:16;;;;;;;3.40;3.20;;;10.40;65.20;;;;;;20167;6831;278990;-87
2022/11/14 09:49:42;;;;;;;5.17;2.77;;;10.30;65.10;;;;;;20742;6831;117110;-87
2022/11/14 09:52:20;;;;;;;3.33;3.03;;;10.30;64.80;;;;;;20742;6831;117216;-86
2022/11/14 09:54:59;;;;;;;3.33;3.13;;;10.10;65.40;;;;;;20495;6832;279525;-90
2022/11/14 09:57:25;;;;;;;3.28;3.10;;;10.20;65.90;;;;;;20302;6832;303215;-88
2022/11/14 09:59:51;;;;;;;3.35;3.15;;;10.60;65.20;;;;;;20548;6832;335091;-89
2022/11/14 10:02:19;;;;;;;5.33;4.93;;;10.80;64.50;;;;;;20757;6832;117658;-86
2022/11/14 10:05:14;;;;;;;3.80;3.50;;;10.80;64.20;;;;;;20503;6832;282282;-86
2022/11/14 10:08:20;;;;;;;2.87;2.78;;;10.90;64.20;;;;;;20565;6819;335707;-89
2022/11/14 10:10:55;;;;;;;2.53;2.23;;;11.20;63.40;;;;;;20775;6823;117829;-84
2022/11/14 10:13:40;;;;;;;2.50;2.30;;;11.10;63.30;;;;;;20735;6838;117363;-88
2022/11/14 10:16:06;;;;;;;2.72;2.62;;;10.90;64.20;;;;;;20534;6838;341185;-84
2022/11/14 10:18:45;;;;;;;2.60;2.50;;;10.90;64.10;;;;;;20764;6828;116931;-89
2022/11/14 10:21:44;;;;;;;2.07;1.87;;;11.00;63.80;;;;;;20767;6828;117616;-86
2022/11/14 10:24:26;;;;;;;1.63;1.53;;;10.80;64.20;;;;;;20782;6835;118548;-87
2022/11/14 10:27:04;;;;;;;1.33;1.33;;;10.60;64.90;;;;;;20661;6835;127051;-91
2022/11/14 10:29:43;;;;;;;1.43;1.43;;;10.50;65.50;;;;;;20759;6814;117471;-88
2022/11/14 10:32:28;;;;;;;2.00;1.90;;;10.40;65.90;;;;;;20509;6815;117424;-88
2022/11/14 10:35:03;;;;;;;2.00;1.90;;;10.30;66.10;;;;;;20595;6815;277564;-89
2022/11/14 10:37:49;;;;;;;1.63;1.53;;;10.60;66.00;;;;;;20561;6815;307620;-93
2022/11/14 10:40:19;;;;;;;1.60;1.60;;;11.20;64.10;;;;;;20777;6831;118469;-89
2022/11/14 10:42:47;;;;;;;1.52;1.42;;;11.10;64.00;;;;;;20610;6816;307648;-88
2022/11/14 10:45:16;;;;;;;2.70;2.60;;;11.30;63.50;;;;;;20874;6816;116683;-89
2022/11/14 10:47:45;;;;;;;1.43;1.37;;;11.30;63.20;;;;;;20913;6816;68073;-90
2022/11/14 10:50:21;;;;;;;1.40;1.30;;;11.20;63.50;;;;;;20886;6816;116191;-86
2022/11/14 10:52:47;;;;;;;0.90;0.90;;;11.00;63.80;;;;;;20836;6816;120271;-85
2022/11/14 10:55:13;;;;;;;1.40;1.30;;;10.90;64.20;;;;;;20611;6816;307385;-86
2022/11/14 10:57:38;;;;;;;1.03;1.03;;;11.10;64.10;;;;;;20791;6831;116457;-88
2022/11/14 11:00:14;;;;;;;1.13;1.13;;;11.20;63.80;;;;;;20793;6831;117031;-86
2022/11/14 11:02:50;;;;;;;1.93;1.10;;;11.20;64.00;;;;;;20798;6819;117897;-85
2022/11/14 11:05:15;;;;;;;0.97;0.97;;;11.10;64.20;;;;;;20745;6832;118151;-88
2022/11/14 11:13:27;;;;;;;1.57;1.47;;;10.90;64.70;;;;;;20578;6831;310509;-86
2022/11/14 11:15:54;;;;;;;1.33;1.20;;;11.20;64.10;;;;;;20666;6822;117588;-84
2022/11/14 11:18:33;;;;;;;1.10;1.10;;;11.40;63.50;;;;;;20819;6822;117113;-84
2022/11/14 11:21:12;;;;;;;1.50;1.40;;;11.30;63.40;;;;;;20529;6822;333298;-87
2022/11/14 11:23:53;;;;;;;1.73;1.63;;;11.60;62.20;;;;;;20540;6833;319053;-88
2022/11/14 11:26:25;;;;;;;5.40;5.10;;;12.00;60.60;;;;;;20517;6833;277861;-87
2022/11/14 11:29:05;;;;;;;1.80;1.70;;;12.60;58.20;;;;;;20539;6833;309189;-84
2022/11/14 11:31:50;;;;;;;1.30;1.23;;;12.50;58.10;;;;;;20703;6847;121257;-85
2022/11/14 11:34:16;;;;;;;1.40;1.40;;;12.50;58.30;;;;;;20762;6829;117200;-87
2022/11/14 11:36:41;;;;;;;1.55;1.45;;;12.20;59.00;;;;;;20472;6830;280388;-90
2022/11/14 11:39:07;;;;;;;1.93;1.83;;;12.20;58.60;;;;;;20492;6816;283038;-86
2022/11/14 11:41:32;;;;;;;1.60;1.60;;;12.40;57.70;;;;;;20801;6814;117367;-85
2022/11/14 11:43:58;;;;;;;1.80;1.70;;;12.40;57.80;;;;;;20815;6815;117078;-87
2022/11/14 11:46:32;;;;;;;1.62;1.52;;;12.00;59.00;;;;;;20787;6815;116670;-89
2022/11/14 11:48:59;;;;;;;1.40;1.40;;;11.90;58.90;;;;;;20766;6820;117765;-87
2022/11/14 11:51:25;;;;;;;1.93;1.83;;;11.60;60.00;;;;;;20774;6820;117584;-86
2022/11/14 11:53:54;;;;;;;2.17;2.07;;;11.60;60.00;;;;;;20541;6830;278572;-89
2022/11/14 11:56:23;;;;;;;1.87;1.77;;;11.70;60.50;;;;;;20506;6824;291211;-86
2022/11/14 11:58:48;;;;;;;1.80;1.70;;;12.10;59.90;;;;;;20680;6824;117085;-87
2022/11/14 12:01:14;;;;;;;1.70;1.60;;;12.10;59.70;;;;;;20704;6847;117382;-87
2022/11/14 12:03:46;;;;;;;2.07;1.97;;;12.00;60.20;;;;;;20425;6871;309675;-86
2022/11/14 12:06:23;;;;;;;2.03;1.93;;;12.00;59.90;;;;;;20463;6845;308924;-88
2022/11/14 12:09:08;;;;;;;2.05;1.95;;;12.40;59.00;;;;;;20501;6845;341951;-89
2022/11/14 12:11:33;;;;;;;3.53;1.67;;;12.60;58.10;;;;;;20591;6845;117552;-89
2022/11/14 12:14:22;;;;;;;2.03;1.93;;;12.60;58.30;;;;;;20515;6845;307714;-88
2022/11/14 12:17:14;;;;;;;2.10;2.00;;;12.60;58.00;;;;;;20499;6845;280439;-89
2022/11/14 12:19:52;;;;;;;2.08;1.98;;;12.80;57.80;;;;;;20516;6845;279322;-88
2022/11/14 12:22:39;;;;;;;1.80;1.70;;;13.10;57.60;;;;;;20690;6845;117498;-89
2022/11/14 12:25:20;;;;;;;2.20;2.10;;;13.10;57.90;;;;;;20497;6845;337489;-88
2022/11/14 12:27:53;;;;;;;1.97;1.87;;;13.20;57.30;;;;;;20701;6845;122468;-88
2022/11/14 12:30:20;;;;;;;2.20;2.10;;;13.20;57.70;;;;;;20522;6845;307210;-88
2022/11/14 12:32:44;;;;;;;1.80;1.70;;;13.30;58.10;;;;;;20783;6845;122040;-86
2022/11/14 12:35:10;;;;;;;2.00;1.90;;;13.30;57.90;;;;;;20435;6840;312764;-86
2022/11/14 12:37:35;;;;;;;6.47;5.95;;;13.40;57.00;;;;;;20513;6840;278065;-89
2022/11/14 12:40:01;;;;;;;3.33;3.12;;;13.60;56.60;;;;;;20530;6834;314242;-89
2022/11/14 12:42:26;;;;;;;2.80;2.70;;;13.80;55.30;;;;;;20730;6834;123833;-85
2022/11/14 12:44:53;;;;;;;2.90;2.20;;;13.70;55.60;;;;;;20732;6834;119252;-85
2022/11/14 12:47:27;;;;;;;3.17;1.90;;;13.40;56.20;;;;;;20537;6834;312420;-86
2022/11/14 12:49:54;;;;;;;1.90;1.80;;;13.50;56.20;;;;;;20748;6834;120842;-86
2022/11/14 12:52:39;;;;;;;2.00;1.90;;;13.40;56.40;;;;;;20741;6832;114046;-86
2022/11/14 12:55:24;;;;;;;1.70;1.60;;;13.20;57.00;;;;;;20717;6833;117246;-86
2022/11/14 12:58:10;;;;;;;2.12;2.03;;;13.00;57.50;;;;;;20545;6834;277481;-86
2022/11/14 13:00:38;;;;;;;2.50;2.30;;;13.20;57.00;;;;;;20525;6834;308039;-87
2022/11/14 13:03:07;;;;;;;2.50;2.30;;;13.50;56.70;;;;;;20442;6834;306519;-87
2022/11/14 13:05:40;;;;;;;2.03;1.80;;;13.70;56.20;;;;;;20735;6834;120646;-87
2022/11/14 13:08:25;;;;;;;2.03;1.93;;;13.70;56.50;;;;;;20525;6834;118550;-86
2022/11/14 13:10:51;;;;;;;2.23;2.03;;;13.40;57.00;;;;;;20653;6834;118466;-87
2022/11/14 13:21:44;;;;;;;1.97;1.87;;;13.20;58.30;;;;;;20532;6834;310351;-87
2022/11/14 13:22:13;;;;;;;2.30;2.20;;;13.80;56.70;;;;;;20539;6834;277701;-86
2022/11/14 13:25:01;;;;;;;1.97;1.87;;;14.20;55.40;;;;;;20510;6834;314854;-87
2022/11/14 13:27:31;;;;;;;1.90;1.80;;;14.40;55.90;;;;;;20753;6834;118720;-87
2022/11/14 13:29:59;;;;;;;2.03;1.93;;;14.40;54.20;;;;;;20533;6834;308015;-86
2022/11/14 13:32:39;;;;;;;2.67;1.93;;;14.40;54.20;;;;;;20742;6834;121181;-87
2022/11/14 13:35:05;;;;;;;2.00;1.80;;;14.40;54.80;;;;;;20740;6834;119620;-87
2022/11/14 13:37:53;;;;;;;2.40;2.20;;;14.10;55.30;;;;;;20506;6834;308287;-87
2022/11/14 13:40:36;;;;;;;1.97;1.87;;;14.10;54.90;;;;;;20686;6834;117573;-89
2022/11/14 13:43:01;;;;;;;1.80;1.70;;;14.10;55.20;;;;;;20715;6834;119088;-86
2022/11/14 13:45:34;;;;;;;2.47;2.27;;;13.90;55.80;;;;;;20718;6834;118100;-87
2022/11/14 13:48:26;;;;;;;2.30;2.20;;;13.70;56.20;;;;;;20520;6834;327952;-89
2022/11/14 13:50:52;;;;;;;2.53;2.05;;;13.80;55.50;;;;;;20552;6834;276976;-87